sensor_id;sensor_type;location;lat;lon;timestamp;P1;durP1;ratioP1;P2;durP2;ratioP2
10761;SDS011;5433;50.862;4.320;2023-05-07T00:00:53;7.60;;;3.63;;
10761;SDS011;5433;50.862;4.320;2023-05-07T00:03:20;8.25;;;3.55;;
10761;SDS011;5433;50.862;4.320;2023-05-07T00:05:46;5.15;;;3.40;;
10761;SDS011;5433;50.862;4.320;2023-05-07T00:08:13;9.10;;;3.25;;
10761;SDS011;5433;50.862;4.320;2023-05-07T00:10:39;9.90;;;3.88;;
10761;SDS011;5433;50.862;4.320;2023-05-07T00:13:05;7.88;;;3.40;;
10761;SDS011;5433;50.862;4.320;2023-05-07T00:15:31;7.03;;;3.75;;
10761;SDS011;5433;50.862;4.320;2023-05-07T00:17:57;8.77;;;3.42;;
10761;SDS011;5433;50.862;4.320;2023-05-07T00:20:24;4.63;;;3.00;;
10761;SDS011;5433;50.862;4.320;2023-05-07T00:25:54;8.70;;;3.60;;
10761;SDS011;5433;50.862;4.320;2023-05-07T00:28:20;5.85;;;3.50;;
10761;SDS011;5433;50.862;4.320;2023-05-07T00:30:46;7.03;;;3.47;;
10761;SDS011;5433;50.862;4.320;2023-05-07T00:33:12;5.72;;;3.35;;
10761;SDS011;5433;50.862;4.320;2023-05-07T00:35:38;6.47;;;3.13;;
10761;SDS011;5433;50.862;4.320;2023-05-07T00:38:04;5.28;;;3.20;;
10761;SDS011;5433;50.862;4.320;2023-05-07T00:40:30;6.97;;;2.97;;
10761;SDS011;5433;50.862;4.320;2023-05-07T00:42:56;5.65;;;2.90;;
10761;SDS011;5433;50.862;4.320;2023-05-07T00:45:23;5.57;;;3.10;;
10761;SDS011;5433;50.862;4.320;2023-05-07T00:47:54;5.63;;;3.00;;
10761;SDS011;5433;50.862;4.320;2023-05-07T00:50:37;6.70;;;2.95;;
10761;SDS011;5433;50.862;4.320;2023-05-07T00:53:03;5.65;;;3.28;;
10761;SDS011;5433;50.862;4.320;2023-05-07T00:55:30;6.95;;;3.58;;
10761;SDS011;5433;50.862;4.320;2023-05-07T00:57:56;6.90;;;3.30;;
10761;SDS011;5433;50.862;4.320;2023-05-07T01:00:22;7.78;;;3.05;;
10761;SDS011;5433;50.862;4.320;2023-05-07T01:02:49;5.00;;;3.15;;
10761;SDS011;5433;50.862;4.320;2023-05-07T01:05:16;6.50;;;3.20;;
10761;SDS011;5433;50.862;4.320;2023-05-07T01:07:43;5.55;;;2.97;;
10761;SDS011;5433;50.862;4.320;2023-05-07T01:10:09;6.50;;;3.08;;
10761;SDS011;5433;50.862;4.320;2023-05-07T01:12:36;5.40;;;2.95;;
10761;SDS011;5433;50.862;4.320;2023-05-07T01:15:03;3.92;;;2.70;;
10761;SDS011;5433;50.862;4.320;2023-05-07T01:17:33;6.95;;;3.13;;
10761;SDS011;5433;50.862;4.320;2023-05-07T01:19:59;6.50;;;3.25;;
10761;SDS011;5433;50.862;4.320;2023-05-07T01:22:30;7.35;;;3.55;;
10761;SDS011;5433;50.862;4.320;2023-05-07T01:24:57;5.78;;;2.97;;
10761;SDS011;5433;50.862;4.320;2023-05-07T01:27:26;8.18;;;3.40;;
10761;SDS011;5433;50.862;4.320;2023-05-07T01:29:52;6.15;;;3.42;;
10761;SDS011;5433;50.862;4.320;2023-05-07T01:32:20;8.18;;;3.17;;
10761;SDS011;5433;50.862;4.320;2023-05-07T01:34:49;5.65;;;3.45;;
10761;SDS011;5433;50.862;4.320;2023-05-07T01:37:16;7.35;;;3.58;;
10761;SDS011;5433;50.862;4.320;2023-05-07T01:39:42;5.22;;;3.17;;
10761;SDS011;5433;50.862;4.320;2023-05-07T01:42:08;5.88;;;3.10;;
10761;SDS011;5433;50.862;4.320;2023-05-07T01:44:35;5.72;;;3.05;;
10761;SDS011;5433;50.862;4.320;2023-05-07T01:47:01;6.25;;;3.05;;
10761;SDS011;5433;50.862;4.320;2023-05-07T01:49:27;6.60;;;3.13;;
10761;SDS011;5433;50.862;4.320;2023-05-07T01:51:54;6.05;;;3.40;;
10761;SDS011;5433;50.862;4.320;2023-05-07T01:54:24;6.13;;;2.95;;
10761;SDS011;5433;50.862;4.320;2023-05-07T01:56:52;4.20;;;3.10;;
10761;SDS011;5433;50.862;4.320;2023-05-07T01:59:18;5.28;;;3.00;;
10761;SDS011;5433;50.862;4.320;2023-05-07T02:01:44;5.50;;;3.20;;
10761;SDS011;5433;50.862;4.320;2023-05-07T02:04:10;5.60;;;2.97;;
10761;SDS011;5433;50.862;4.320;2023-05-07T02:06:36;7.18;;;3.13;;
10761;SDS011;5433;50.862;4.320;2023-05-07T02:09:04;7.20;;;3.45;;
10761;SDS011;5433;50.862;4.320;2023-05-07T02:14:32;6.13;;;3.03;;
10761;SDS011;5433;50.862;4.320;2023-05-07T02:17:14;6.43;;;3.05;;
10761;SDS011;5433;50.862;4.320;2023-05-07T02:31:30;6.32;;;2.95;;
10761;SDS011;5433;50.862;4.320;2023-05-07T02:33:56;5.88;;;2.95;;
10761;SDS011;5433;50.862;4.320;2023-05-07T02:36:22;5.45;;;2.53;;
10761;SDS011;5433;50.862;4.320;2023-05-07T02:38:48;7.85;;;3.10;;
10761;SDS011;5433;50.862;4.320;2023-05-07T02:41:14;5.40;;;3.08;;
10761;SDS011;5433;50.862;4.320;2023-05-07T02:43:40;8.00;;;3.35;;
10761;SDS011;5433;50.862;4.320;2023-05-07T02:46:07;8.07;;;3.20;;
10761;SDS011;5433;50.862;4.320;2023-05-07T02:48:33;6.03;;;3.40;;
10761;SDS011;5433;50.862;4.320;2023-05-07T02:51:00;5.55;;;3.33;;
10761;SDS011;5433;50.862;4.320;2023-05-07T02:53:26;7.80;;;3.42;;
10761;SDS011;5433;50.862;4.320;2023-05-07T02:55:52;8.82;;;3.22;;
10761;SDS011;5433;50.862;4.320;2023-05-07T02:58:19;7.05;;;3.28;;
10761;SDS011;5433;50.862;4.320;2023-05-07T03:00:45;5.13;;;2.85;;
10761;SDS011;5433;50.862;4.320;2023-05-07T03:03:11;6.25;;;3.10;;
10761;SDS011;5433;50.862;4.320;2023-05-07T03:05:37;7.50;;;3.20;;
10761;SDS011;5433;50.862;4.320;2023-05-07T03:08:03;5.10;;;3.20;;
10761;SDS011;5433;50.862;4.320;2023-05-07T03:10:29;7.53;;;3.30;;
10761;SDS011;5433;50.862;4.320;2023-05-07T03:12:56;8.73;;;3.42;;
10761;SDS011;5433;50.862;4.320;2023-05-07T03:15:22;8.32;;;3.50;;
10761;SDS011;5433;50.862;4.320;2023-05-07T03:17:48;7.05;;;3.40;;
10761;SDS011;5433;50.862;4.320;2023-05-07T03:20:14;4.82;;;3.35;;
10761;SDS011;5433;50.862;4.320;2023-05-07T03:22:40;5.28;;;3.20;;
10761;SDS011;5433;50.862;4.320;2023-05-07T03:25:07;5.78;;;3.13;;
10761;SDS011;5433;50.862;4.320;2023-05-07T03:27:33;5.55;;;3.22;;
10761;SDS011;5433;50.862;4.320;2023-05-07T03:29:59;9.38;;;3.75;;
10761;SDS011;5433;50.862;4.320;2023-05-07T03:32:26;8.38;;;3.60;;
10761;SDS011;5433;50.862;4.320;2023-05-07T03:34:52;6.55;;;3.70;;
10761;SDS011;5433;50.862;4.320;2023-05-07T03:37:18;4.75;;;3.30;;
10761;SDS011;5433;50.862;4.320;2023-05-07T03:39:44;7.95;;;3.47;;
10761;SDS011;5433;50.862;4.320;2023-05-07T03:42:10;6.88;;;4.03;;
10761;SDS011;5433;50.862;4.320;2023-05-07T03:44:36;7.93;;;3.60;;
10761;SDS011;5433;50.862;4.320;2023-05-07T03:47:02;7.03;;;3.42;;
10761;SDS011;5433;50.862;4.320;2023-05-07T03:49:28;7.18;;;3.50;;
10761;SDS011;5433;50.862;4.320;2023-05-07T03:51:54;7.55;;;3.47;;
10761;SDS011;5433;50.862;4.320;2023-05-07T03:54:21;6.25;;;3.60;;
10761;SDS011;5433;50.862;4.320;2023-05-07T03:56:47;6.75;;;3.67;;
10761;SDS011;5433;50.862;4.320;2023-05-07T03:59:13;7.88;;;4.03;;
10761;SDS011;5433;50.862;4.320;2023-05-07T04:01:39;6.63;;;3.67;;
10761;SDS011;5433;50.862;4.320;2023-05-07T04:04:06;7.25;;;3.97;;
10761;SDS011;5433;50.862;4.320;2023-05-07T04:06:32;6.75;;;3.75;;
10761;SDS011;5433;50.862;4.320;2023-05-07T04:08:58;8.68;;;3.80;;
10761;SDS011;5433;50.862;4.320;2023-05-07T04:11:25;5.60;;;3.60;;
10761;SDS011;5433;50.862;4.320;2023-05-07T04:13:51;7.85;;;3.97;;
10761;SDS011;5433;50.862;4.320;2023-05-07T04:16:17;6.97;;;3.78;;
10761;SDS011;5433;50.862;4.320;2023-05-07T04:18:43;5.85;;;3.42;;
10761;SDS011;5433;50.862;4.320;2023-05-07T04:21:15;9.35;;;4.30;;
10761;SDS011;5433;50.862;4.320;2023-05-07T04:23:42;6.72;;;3.90;;
10761;SDS011;5433;50.862;4.320;2023-05-07T04:26:08;10.00;;;4.43;;
10761;SDS011;5433;50.862;4.320;2023-05-07T04:28:34;10.60;;;4.30;;
10761;SDS011;5433;50.862;4.320;2023-05-07T04:31:00;10.30;;;4.28;;
10761;SDS011;5433;50.862;4.320;2023-05-07T04:33:26;7.28;;;3.67;;
10761;SDS011;5433;50.862;4.320;2023-05-07T04:35:52;7.18;;;4.00;;
10761;SDS011;5433;50.862;4.320;2023-05-07T04:38:18;5.15;;;3.67;;
10761;SDS011;5433;50.862;4.320;2023-05-07T04:40:45;7.65;;;3.70;;
10761;SDS011;5433;50.862;4.320;2023-05-07T04:43:11;5.40;;;3.60;;
10761;SDS011;5433;50.862;4.320;2023-05-07T04:48:20;7.82;;;3.67;;
10761;SDS011;5433;50.862;4.320;2023-05-07T04:50:49;7.18;;;4.03;;
10761;SDS011;5433;50.862;4.320;2023-05-07T04:53:16;8.32;;;3.92;;
10761;SDS011;5433;50.862;4.320;2023-05-07T04:55:42;9.38;;;4.20;;
10761;SDS011;5433;50.862;4.320;2023-05-07T04:58:09;7.10;;;4.00;;
10761;SDS011;5433;50.862;4.320;2023-05-07T05:00:36;9.13;;;3.85;;
10761;SDS011;5433;50.862;4.320;2023-05-07T05:03:02;7.43;;;4.13;;
10761;SDS011;5433;50.862;4.320;2023-05-07T05:05:28;9.90;;;4.22;;
10761;SDS011;5433;50.862;4.320;2023-05-07T05:07:54;8.15;;;4.25;;
10761;SDS011;5433;50.862;4.320;2023-05-07T05:10:21;7.03;;;3.90;;
10761;SDS011;5433;50.862;4.320;2023-05-07T05:12:47;5.88;;;4.00;;
10761;SDS011;5433;50.862;4.320;2023-05-07T05:15:13;7.38;;;4.22;;
10761;SDS011;5433;50.862;4.320;2023-05-07T05:17:40;9.27;;;4.18;;
10761;SDS011;5433;50.862;4.320;2023-05-07T05:20:06;7.43;;;4.50;;
10761;SDS011;5433;50.862;4.320;2023-05-07T05:22:32;5.97;;;4.45;;
10761;SDS011;5433;50.862;4.320;2023-05-07T05:24:59;7.88;;;4.90;;
10761;SDS011;5433;50.862;4.320;2023-05-07T05:27:26;8.13;;;4.78;;
10761;SDS011;5433;50.862;4.320;2023-05-07T05:29:52;7.68;;;4.10;;
10761;SDS011;5433;50.862;4.320;2023-05-07T05:32:18;8.63;;;4.68;;
10761;SDS011;5433;50.862;4.320;2023-05-07T05:34:44;5.82;;;4.00;;
10761;SDS011;5433;50.862;4.320;2023-05-07T05:37:10;8.10;;;4.10;;
10761;SDS011;5433;50.862;4.320;2023-05-07T05:39:36;5.88;;;4.20;;
10761;SDS011;5433;50.862;4.320;2023-05-07T05:42:02;8.18;;;4.82;;
10761;SDS011;5433;50.862;4.320;2023-05-07T05:44:28;8.02;;;5.22;;
10761;SDS011;5433;50.862;4.320;2023-05-07T05:46:54;8.80;;;4.40;;
10761;SDS011;5433;50.862;4.320;2023-05-07T05:49:22;6.80;;;3.58;;
10761;SDS011;5433;50.862;4.320;2023-05-07T05:51:48;8.45;;;3.50;;
10761;SDS011;5433;50.862;4.320;2023-05-07T05:54:14;6.00;;;3.22;;
10761;SDS011;5433;50.862;4.320;2023-05-07T05:56:41;7.45;;;3.10;;
10761;SDS011;5433;50.862;4.320;2023-05-07T05:59:07;6.20;;;3.15;;
10761;SDS011;5433;50.862;4.320;2023-05-07T06:01:33;7.03;;;3.25;;
10761;SDS011;5433;50.862;4.320;2023-05-07T06:03:59;7.88;;;3.80;;
10761;SDS011;5433;50.862;4.320;2023-05-07T06:06:25;7.50;;;3.90;;
10761;SDS011;5433;50.862;4.320;2023-05-07T06:08:52;6.35;;;3.45;;
10761;SDS011;5433;50.862;4.320;2023-05-07T06:11:18;6.78;;;3.50;;
10761;SDS011;5433;50.862;4.320;2023-05-07T06:13:44;6.18;;;3.88;;
10761;SDS011;5433;50.862;4.320;2023-05-07T06:16:10;7.07;;;3.70;;
10761;SDS011;5433;50.862;4.320;2023-05-07T06:18:36;8.20;;;4.10;;
10761;SDS011;5433;50.862;4.320;2023-05-07T06:21:03;7.68;;;4.03;;
10761;SDS011;5433;50.862;4.320;2023-05-07T06:23:29;10.15;;;4.20;;
10761;SDS011;5433;50.862;4.320;2023-05-07T06:25:55;7.25;;;3.60;;
10761;SDS011;5433;50.862;4.320;2023-05-07T06:28:21;5.78;;;3.63;;
10761;SDS011;5433;50.862;4.320;2023-05-07T06:30:47;9.55;;;3.78;;
10761;SDS011;5433;50.862;4.320;2023-05-07T06:33:14;6.45;;;3.75;;
10761;SDS011;5433;50.862;4.320;2023-05-07T06:35:41;5.97;;;4.10;;
10761;SDS011;5433;50.862;4.320;2023-05-07T06:38:07;6.80;;;4.03;;
10761;SDS011;5433;50.862;4.320;2023-05-07T06:40:33;7.93;;;4.20;;
10761;SDS011;5433;50.862;4.320;2023-05-07T06:42:59;8.43;;;4.00;;
10761;SDS011;5433;50.862;4.320;2023-05-07T06:45:25;8.02;;;4.22;;
10761;SDS011;5433;50.862;4.320;2023-05-07T06:47:51;7.88;;;4.40;;
10761;SDS011;5433;50.862;4.320;2023-05-07T06:50:17;7.95;;;4.28;;
10761;SDS011;5433;50.862;4.320;2023-05-07T06:52:43;7.40;;;4.45;;
10761;SDS011;5433;50.862;4.320;2023-05-07T06:55:10;9.57;;;4.60;;
10761;SDS011;5433;50.862;4.320;2023-05-07T06:57:37;7.43;;;5.00;;
10761;SDS011;5433;50.862;4.320;2023-05-07T07:00:04;9.25;;;4.90;;
10761;SDS011;5433;50.862;4.320;2023-05-07T07:02:31;7.80;;;4.35;;
10761;SDS011;5433;50.862;4.320;2023-05-07T07:04:58;7.93;;;4.50;;
10761;SDS011;5433;50.862;4.320;2023-05-07T07:07:24;8.18;;;4.38;;
10761;SDS011;5433;50.862;4.320;2023-05-07T07:09:50;7.93;;;4.47;;
10761;SDS011;5433;50.862;4.320;2023-05-07T07:12:16;8.85;;;4.55;;
10761;SDS011;5433;50.862;4.320;2023-05-07T07:14:42;5.03;;;4.00;;
10761;SDS011;5433;50.862;4.320;2023-05-07T07:17:08;7.43;;;4.00;;
10761;SDS011;5433;50.862;4.320;2023-05-07T07:19:35;6.10;;;3.75;;
10761;SDS011;5433;50.862;4.320;2023-05-07T07:22:04;6.68;;;3.95;;
10761;SDS011;5433;50.862;4.320;2023-05-07T07:24:30;6.72;;;4.00;;
10761;SDS011;5433;50.862;4.320;2023-05-07T07:26:56;7.88;;;4.38;;
10761;SDS011;5433;50.862;4.320;2023-05-07T07:29:22;7.00;;;3.95;;
10761;SDS011;5433;50.862;4.320;2023-05-07T07:31:51;6.32;;;4.22;;
10761;SDS011;5433;50.862;4.320;2023-05-07T07:34:17;9.27;;;4.47;;
10761;SDS011;5433;50.862;4.320;2023-05-07T07:36:43;5.85;;;3.97;;
10761;SDS011;5433;50.862;4.320;2023-05-07T07:39:10;6.20;;;4.40;;
10761;SDS011;5433;50.862;4.320;2023-05-07T07:41:37;8.65;;;4.28;;
10761;SDS011;5433;50.862;4.320;2023-05-07T07:44:03;8.23;;;4.63;;
10761;SDS011;5433;50.862;4.320;2023-05-07T07:46:32;9.52;;;4.82;;
10761;SDS011;5433;50.862;4.320;2023-05-07T07:48:58;6.93;;;4.50;;
10761;SDS011;5433;50.862;4.320;2023-05-07T07:51:25;7.30;;;4.40;;
10761;SDS011;5433;50.862;4.320;2023-05-07T07:53:51;7.45;;;4.32;;
10761;SDS011;5433;50.862;4.320;2023-05-07T07:56:18;7.05;;;4.63;;
10761;SDS011;5433;50.862;4.320;2023-05-07T07:58:44;7.40;;;4.53;;
10761;SDS011;5433;50.862;4.320;2023-05-07T08:01:10;8.10;;;4.60;;
10761;SDS011;5433;50.862;4.320;2023-05-07T08:03:37;9.20;;;4.78;;
10761;SDS011;5433;50.862;4.320;2023-05-07T08:06:03;7.38;;;4.65;;
10761;SDS011;5433;50.862;4.320;2023-05-07T08:08:29;5.68;;;4.40;;
10761;SDS011;5433;50.862;4.320;2023-05-07T08:10:55;7.90;;;4.32;;
10761;SDS011;5433;50.862;4.320;2023-05-07T08:13:21;8.95;;;5.22;;
10761;SDS011;5433;50.862;4.320;2023-05-07T08:15:47;7.03;;;4.55;;
10761;SDS011;5433;50.862;4.320;2023-05-07T08:18:13;9.23;;;4.70;;
10761;SDS011;5433;50.862;4.320;2023-05-07T08:20:40;6.03;;;4.50;;
10761;SDS011;5433;50.862;4.320;2023-05-07T08:23:06;6.38;;;4.15;;
10761;SDS011;5433;50.862;4.320;2023-05-07T08:25:33;7.13;;;4.65;;
10761;SDS011;5433;50.862;4.320;2023-05-07T08:27:59;6.57;;;4.65;;
10761;SDS011;5433;50.862;4.320;2023-05-07T08:30:25;7.03;;;4.68;;
10761;SDS011;5433;50.862;4.320;2023-05-07T08:32:51;8.43;;;4.63;;
10761;SDS011;5433;50.862;4.320;2023-05-07T08:35:17;7.68;;;4.68;;
10761;SDS011;5433;50.862;4.320;2023-05-07T08:37:43;7.00;;;5.03;;
10761;SDS011;5433;50.862;4.320;2023-05-07T08:40:10;5.95;;;4.85;;
10761;SDS011;5433;50.862;4.320;2023-05-07T08:42:36;8.98;;;5.60;;
10761;SDS011;5433;50.862;4.320;2023-05-07T08:45:03;7.47;;;5.43;;
10761;SDS011;5433;50.862;4.320;2023-05-07T08:47:42;8.15;;;5.20;;
10761;SDS011;5433;50.862;4.320;2023-05-07T08:50:10;7.85;;;5.25;;
10761;SDS011;5433;50.862;4.320;2023-05-07T08:52:36;7.53;;;5.22;;
10761;SDS011;5433;50.862;4.320;2023-05-07T08:55:02;6.45;;;4.57;;
10761;SDS011;5433;50.862;4.320;2023-05-07T08:57:29;5.93;;;4.50;;
10761;SDS011;5433;50.862;4.320;2023-05-07T08:59:55;6.35;;;4.95;;
10761;SDS011;5433;50.862;4.320;2023-05-07T09:02:21;8.93;;;5.20;;
10761;SDS011;5433;50.862;4.320;2023-05-07T09:04:47;8.27;;;5.50;;
10761;SDS011;5433;50.862;4.320;2023-05-07T09:07:13;7.15;;;4.85;;
10761;SDS011;5433;50.862;4.320;2023-05-07T09:09:39;9.23;;;5.25;;
10761;SDS011;5433;50.862;4.320;2023-05-07T09:12:08;6.80;;;4.28;;
10761;SDS011;5433;50.862;4.320;2023-05-07T09:14:37;5.57;;;3.97;;
10761;SDS011;5433;50.862;4.320;2023-05-07T09:17:05;5.57;;;3.95;;
10761;SDS011;5433;50.862;4.320;2023-05-07T09:19:31;7.95;;;4.82;;
10761;SDS011;5433;50.862;4.320;2023-05-07T09:21:58;5.97;;;4.30;;
10761;SDS011;5433;50.862;4.320;2023-05-07T09:24:24;5.93;;;4.35;;
10761;SDS011;5433;50.862;4.320;2023-05-07T09:26:50;6.40;;;4.72;;
10761;SDS011;5433;50.862;4.320;2023-05-07T09:29:16;7.63;;;4.32;;
10761;SDS011;5433;50.862;4.320;2023-05-07T09:31:43;6.47;;;4.40;;
10761;SDS011;5433;50.862;4.320;2023-05-07T09:34:09;6.95;;;4.57;;
10761;SDS011;5433;50.862;4.320;2023-05-07T09:36:35;7.05;;;4.28;;
10761;SDS011;5433;50.862;4.320;2023-05-07T09:39:01;6.15;;;4.03;;
10761;SDS011;5433;50.862;4.320;2023-05-07T09:41:27;7.38;;;4.20;;
10761;SDS011;5433;50.862;4.320;2023-05-07T09:43:57;6.97;;;4.30;;
10761;SDS011;5433;50.862;4.320;2023-05-07T09:46:32;7.55;;;4.60;;
10761;SDS011;5433;50.862;4.320;2023-05-07T09:48:59;7.57;;;4.80;;
10761;SDS011;5433;50.862;4.320;2023-05-07T09:51:33;9.07;;;4.88;;
10761;SDS011;5433;50.862;4.320;2023-05-07T09:54:01;6.93;;;4.72;;
10761;SDS011;5433;50.862;4.320;2023-05-07T09:56:29;49.88;;;35.38;;
10761;SDS011;5433;50.862;4.320;2023-05-07T09:58:56;26.85;;;20.17;;
10761;SDS011;5433;50.862;4.320;2023-05-07T10:01:23;10.38;;;7.25;;
10761;SDS011;5433;50.862;4.320;2023-05-07T10:03:49;13.02;;;8.70;;
10761;SDS011;5433;50.862;4.320;2023-05-07T10:06:17;6.30;;;4.47;;
10761;SDS011;5433;50.862;4.320;2023-05-07T10:08:43;6.03;;;4.72;;
10761;SDS011;5433;50.862;4.320;2023-05-07T10:11:10;5.68;;;4.45;;
10761;SDS011;5433;50.862;4.320;2023-05-07T10:13:36;7.07;;;4.63;;
10761;SDS011;5433;50.862;4.320;2023-05-07T10:16:06;7.03;;;4.30;;
10761;SDS011;5433;50.862;4.320;2023-05-07T10:18:32;5.70;;;4.38;;
10761;SDS011;5433;50.862;4.320;2023-05-07T10:21:02;8.10;;;5.30;;
10761;SDS011;5433;50.862;4.320;2023-05-07T10:23:28;7.93;;;5.03;;
10761;SDS011;5433;50.862;4.320;2023-05-07T10:25:55;8.13;;;5.78;;
10761;SDS011;5433;50.862;4.320;2023-05-07T10:28:21;11.57;;;9.35;;
10761;SDS011;5433;50.862;4.320;2023-05-07T10:30:52;8.55;;;6.75;;
10761;SDS011;5433;50.862;4.320;2023-05-07T10:33:26;8.98;;;6.57;;
10761;SDS011;5433;50.862;4.320;2023-05-07T10:35:55;9.02;;;7.43;;
10761;SDS011;5433;50.862;4.320;2023-05-07T10:38:21;6.25;;;4.50;;
10761;SDS011;5433;50.862;4.320;2023-05-07T10:40:47;6.82;;;4.95;;
10761;SDS011;5433;50.862;4.320;2023-05-07T10:43:14;6.00;;;4.88;;
10761;SDS011;5433;50.862;4.320;2023-05-07T10:45:40;6.28;;;3.70;;
10761;SDS011;5433;50.862;4.320;2023-05-07T10:48:06;7.10;;;4.25;;
10761;SDS011;5433;50.862;4.320;2023-05-07T10:50:36;6.05;;;4.35;;
10761;SDS011;5433;50.862;4.320;2023-05-07T10:58:22;5.55;;;4.75;;
10761;SDS011;5433;50.862;4.320;2023-05-07T11:00:50;6.63;;;4.72;;
10761;SDS011;5433;50.862;4.320;2023-05-07T11:03:17;4.93;;;4.28;;
10761;SDS011;5433;50.862;4.320;2023-05-07T11:05:43;4.82;;;4.25;;
10761;SDS011;5433;50.862;4.320;2023-05-07T11:08:10;5.60;;;4.18;;
10761;SDS011;5433;50.862;4.320;2023-05-07T11:10:55;4.63;;;3.63;;
10761;SDS011;5433;50.862;4.320;2023-05-07T11:16:16;5.20;;;3.40;;
10761;SDS011;5433;50.862;4.320;2023-05-07T11:18:49;5.60;;;3.67;;
10761;SDS011;5433;50.862;4.320;2023-05-07T11:24:00;5.68;;;4.20;;
10761;SDS011;5433;50.862;4.320;2023-05-07T11:26:27;4.43;;;3.50;;
10761;SDS011;5433;50.862;4.320;2023-05-07T11:28:53;5.20;;;4.38;;
10761;SDS011;5433;50.862;4.320;2023-05-07T11:31:26;5.80;;;3.75;;
10761;SDS011;5433;50.862;4.320;2023-05-07T11:33:54;4.20;;;3.35;;
10761;SDS011;5433;50.862;4.320;2023-05-07T11:36:22;4.80;;;3.50;;
10761;SDS011;5433;50.862;4.320;2023-05-07T11:38:48;7.50;;;3.83;;
10761;SDS011;5433;50.862;4.320;2023-05-07T11:41:15;4.05;;;3.40;;
10761;SDS011;5433;50.862;4.320;2023-05-07T11:43:58;4.63;;;3.40;;
10761;SDS011;5433;50.862;4.320;2023-05-07T11:46:24;5.50;;;2.53;;
10761;SDS011;5433;50.862;4.320;2023-05-07T11:48:50;3.03;;;2.60;;
10761;SDS011;5433;50.862;4.320;2023-05-07T11:51:23;3.97;;;3.38;;
10761;SDS011;5433;50.862;4.320;2023-05-07T11:53:51;5.75;;;3.35;;
10761;SDS011;5433;50.862;4.320;2023-05-07T11:56:17;3.95;;;2.95;;
10761;SDS011;5433;50.862;4.320;2023-05-07T11:58:44;3.05;;;2.70;;
10761;SDS011;5433;50.862;4.320;2023-05-07T12:01:11;4.45;;;2.90;;
10761;SDS011;5433;50.862;4.320;2023-05-07T12:03:40;5.13;;;3.47;;
10761;SDS011;5433;50.862;4.320;2023-05-07T12:06:07;4.82;;;3.30;;
10761;SDS011;5433;50.862;4.320;2023-05-07T12:08:35;4.95;;;3.50;;
10761;SDS011;5433;50.862;4.320;2023-05-07T12:11:02;4.00;;;3.03;;
10761;SDS011;5433;50.862;4.320;2023-05-07T12:13:28;4.22;;;3.30;;
10761;SDS011;5433;50.862;4.320;2023-05-07T12:15:55;4.35;;;3.13;;
10761;SDS011;5433;50.862;4.320;2023-05-07T12:18:21;4.32;;;2.97;;
10761;SDS011;5433;50.862;4.320;2023-05-07T12:20:47;4.85;;;3.40;;
10761;SDS011;5433;50.862;4.320;2023-05-07T12:23:14;3.95;;;3.35;;
10761;SDS011;5433;50.862;4.320;2023-05-07T12:25:41;4.72;;;3.05;;
10761;SDS011;5433;50.862;4.320;2023-05-07T12:28:17;5.45;;;3.40;;
10761;SDS011;5433;50.862;4.320;2023-05-07T12:30:43;3.80;;;3.25;;
10761;SDS011;5433;50.862;4.320;2023-05-07T12:33:10;4.10;;;3.65;;
10761;SDS011;5433;50.862;4.320;2023-05-07T12:35:37;5.13;;;4.25;;
10761;SDS011;5433;50.862;4.320;2023-05-07T12:38:07;5.82;;;4.22;;
10761;SDS011;5433;50.862;4.320;2023-05-07T12:43:02;3.97;;;3.20;;
10761;SDS011;5433;50.862;4.320;2023-05-07T12:45:28;4.60;;;3.50;;
10761;SDS011;5433;50.862;4.320;2023-05-07T12:47:54;8.68;;;6.35;;
10761;SDS011;5433;50.862;4.320;2023-05-07T12:50:20;5.22;;;4.28;;
10761;SDS011;5433;50.862;4.320;2023-05-07T12:52:47;3.97;;;3.58;;
10761;SDS011;5433;50.862;4.320;2023-05-07T12:55:14;4.28;;;3.67;;
10761;SDS011;5433;50.862;4.320;2023-05-07T12:57:45;5.53;;;4.07;;
10761;SDS011;5433;50.862;4.320;2023-05-07T13:00:13;4.20;;;3.80;;
10761;SDS011;5433;50.862;4.320;2023-05-07T13:02:40;4.93;;;4.15;;
10761;SDS011;5433;50.862;4.320;2023-05-07T13:05:06;4.80;;;4.20;;
10761;SDS011;5433;50.862;4.320;2023-05-07T13:07:33;6.35;;;5.05;;
10761;SDS011;5433;50.862;4.320;2023-05-07T13:09:59;5.82;;;5.03;;
10761;SDS011;5433;50.862;4.320;2023-05-07T13:12:25;6.47;;;5.82;;
10761;SDS011;5433;50.862;4.320;2023-05-07T13:14:51;6.45;;;5.78;;
10761;SDS011;5433;50.862;4.320;2023-05-07T13:17:17;6.88;;;6.20;;
10761;SDS011;5433;50.862;4.320;2023-05-07T13:19:43;6.80;;;6.20;;
10761;SDS011;5433;50.862;4.320;2023-05-07T13:22:10;6.70;;;6.07;;
10761;SDS011;5433;50.862;4.320;2023-05-07T13:24:36;6.90;;;6.30;;
10761;SDS011;5433;50.862;4.320;2023-05-07T13:27:03;7.57;;;6.85;;
10761;SDS011;5433;50.862;4.320;2023-05-07T13:29:29;7.68;;;6.90;;
10761;SDS011;5433;50.862;4.320;2023-05-07T13:31:58;6.88;;;6.20;;
10761;SDS011;5433;50.862;4.320;2023-05-07T13:34:24;8.18;;;7.20;;
10761;SDS011;5433;50.862;4.320;2023-05-07T13:36:50;8.55;;;7.75;;
10761;SDS011;5433;50.862;4.320;2023-05-07T13:39:17;8.35;;;7.65;;
10761;SDS011;5433;50.862;4.320;2023-05-07T13:41:43;8.40;;;7.60;;
10761;SDS011;5433;50.862;4.320;2023-05-07T13:44:09;9.05;;;8.30;;
10761;SDS011;5433;50.862;4.320;2023-05-07T13:46:35;8.75;;;7.95;;
10761;SDS011;5433;50.862;4.320;2023-05-07T13:49:01;8.73;;;7.82;;
10761;SDS011;5433;50.862;4.320;2023-05-07T13:51:27;8.82;;;8.02;;
10761;SDS011;5433;50.862;4.320;2023-05-07T13:53:53;10.00;;;8.43;;
10761;SDS011;5433;50.862;4.320;2023-05-07T13:56:19;9.07;;;8.27;;
10761;SDS011;5433;50.862;4.320;2023-05-07T13:58:46;8.30;;;7.50;;
10761;SDS011;5433;50.862;4.320;2023-05-07T14:01:12;9.23;;;8.43;;
10761;SDS011;5433;50.862;4.320;2023-05-07T14:03:38;9.48;;;8.68;;
10761;SDS011;5433;50.862;4.320;2023-05-07T14:06:05;9.82;;;8.93;;
10761;SDS011;5433;50.862;4.320;2023-05-07T14:08:31;9.00;;;8.23;;
10761;SDS011;5433;50.862;4.320;2023-05-07T14:10:57;9.00;;;8.20;;
10761;SDS011;5433;50.862;4.320;2023-05-07T14:13:23;8.45;;;7.68;;
10761;SDS011;5433;50.862;4.320;2023-05-07T14:15:49;8.60;;;7.80;;
10761;SDS011;5433;50.862;4.320;2023-05-07T14:18:15;8.88;;;8.07;;
10761;SDS011;5433;50.862;4.320;2023-05-07T14:20:41;8.93;;;8.13;;
10761;SDS011;5433;50.862;4.320;2023-05-07T14:23:14;9.40;;;8.60;;
10761;SDS011;5433;50.862;4.320;2023-05-07T14:25:45;9.98;;;9.00;;
10761;SDS011;5433;50.862;4.320;2023-05-07T14:28:12;10.13;;;9.23;;
10761;SDS011;5433;50.862;4.320;2023-05-07T14:30:38;10.35;;;9.35;;
10761;SDS011;5433;50.862;4.320;2023-05-07T14:33:04;10.27;;;9.38;;
10761;SDS011;5433;50.862;4.320;2023-05-07T14:35:30;10.63;;;9.63;;
10761;SDS011;5433;50.862;4.320;2023-05-07T14:37:56;11.13;;;10.02;;
10761;SDS011;5433;50.862;4.320;2023-05-07T14:40:23;10.55;;;9.55;;
10761;SDS011;5433;50.862;4.320;2023-05-07T14:42:49;10.77;;;9.68;;
10761;SDS011;5433;50.862;4.320;2023-05-07T14:45:15;10.90;;;9.90;;
10761;SDS011;5433;50.862;4.320;2023-05-07T14:47:43;10.43;;;9.52;;
10761;SDS011;5433;50.862;4.320;2023-05-07T14:50:15;10.73;;;9.73;;
10761;SDS011;5433;50.862;4.320;2023-05-07T14:52:41;11.00;;;10.00;;
10761;SDS011;5433;50.862;4.320;2023-05-07T14:55:07;10.05;;;9.15;;
10761;SDS011;5433;50.862;4.320;2023-05-07T14:57:33;10.13;;;9.13;;
10761;SDS011;5433;50.862;4.320;2023-05-07T15:00:00;11.25;;;10.15;;
10761;SDS011;5433;50.862;4.320;2023-05-07T15:02:26;9.32;;;8.30;;
10761;SDS011;5433;50.862;4.320;2023-05-07T15:04:53;10.25;;;9.35;;
10761;SDS011;5433;50.862;4.320;2023-05-07T15:07:19;9.15;;;8.25;;
10761;SDS011;5433;50.862;4.320;2023-05-07T15:09:45;8.80;;;8.05;;
10761;SDS011;5433;50.862;4.320;2023-05-07T15:12:12;9.90;;;8.90;;
10761;SDS011;5433;50.862;4.320;2023-05-07T15:14:39;8.68;;;7.88;;
10761;SDS011;5433;50.862;4.320;2023-05-07T15:17:05;9.65;;;8.00;;
10761;SDS011;5433;50.862;4.320;2023-05-07T15:19:32;8.50;;;7.60;;
10761;SDS011;5433;50.862;4.320;2023-05-07T15:21:58;8.73;;;7.82;;
10761;SDS011;5433;50.862;4.320;2023-05-07T15:24:27;8.60;;;7.70;;
10761;SDS011;5433;50.862;4.320;2023-05-07T15:26:53;7.38;;;6.78;;
10761;SDS011;5433;50.862;4.320;2023-05-07T15:29:20;6.95;;;6.35;;
10761;SDS011;5433;50.862;4.320;2023-05-07T15:31:46;7.00;;;6.40;;